Time;durP1;ratioP1;P1;durP2;ratioP2;P2;SDS_P1;SDS_P2;PMS_P1;PMS_P2;Temp;Humidity;BMP_temperature;BMP_pressure;BME280_temperature;BME280_humidity;BME280_pressure;Samples;Min_cycle;Max_cycle;Signal;HPM_P1;HPM_P2
2023/11/11 00:02:02;;;;;;;8.57;6.90;;;;;;;11.29;100.00;93937.31;5031259;28;20447;-77
2023/11/11 00:04:29;;;;;;;8.40;7.10;;;;;;;11.17;100.00;93929.69;5030695;28;20490;-77
2023/11/11 00:06:55;;;;;;;10.30;7.33;;;;;;;11.41;100.00;93933.41;5030709;28;20443;-77
2023/11/11 00:09:24;;;;;;;6.90;6.20;;;;;;;11.52;100.00;93927.84;5030601;28;20443;-77
2023/11/11 00:11:51;;;;;;;10.27;6.23;;;;;;;11.58;99.27;93936.94;5030401;28;20801;-77
2023/11/11 00:14:18;;;;;;;6.77;6.07;;;;;;;11.61;99.46;93934.81;5030807;28;20451;-77
2023/11/11 00:16:45;;;;;;;8.40;6.47;;;;;;;11.67;98.95;93926.28;5030578;28;20451;-77
2023/11/11 00:19:13;;;;;;;7.70;5.90;;;;;;;11.73;97.92;93925.63;5030641;28;20446;-77
2023/11/11 00:21:42;;;;;;;7.47;5.10;;;;;;;11.63;98.21;93916.25;5030842;28;20459;-77
2023/11/11 00:24:10;;;;;;;7.20;5.37;;;;;;;11.57;98.39;93909.00;5030899;28;20549;-77
2023/11/11 00:26:40;;;;;;;5.77;4.63;;;;;;;11.69;97.40;93905.91;5030770;28;20507;-77
2023/11/11 00:29:07;;;;;;;8.70;5.17;;;;;;;11.83;97.35;93893.97;5030486;28;20534;-77
2023/11/11 00:31:36;;;;;;;7.40;5.20;;;;;;;11.84;97.57;93894.78;5030465;28;20448;-77
2023/11/11 00:34:03;;;;;;;12.33;5.67;;;;;;;11.85;97.05;93885.91;5030677;28;20447;-77
2023/11/11 00:36:30;;;;;;;13.23;4.67;;;;;;;11.90;96.67;93900.25;5030542;28;20454;-77
2023/11/11 00:38:56;;;;;;;5.37;4.83;;;;;;;11.99;96.59;93904.50;5030365;28;20443;-77
2023/11/11 00:41:23;;;;;;;6.37;5.20;;;;;;;12.02;96.43;93892.84;5030735;28;20442;-77
2023/11/11 00:43:51;;;;;;;5.87;4.80;;;;;;;12.06;95.32;93891.53;5029997;28;21179;-77
2023/11/11 00:46:21;;;;;;;8.57;4.87;;;;;;;12.00;95.34;93884.31;5030185;28;20449;-77
2023/11/11 00:48:48;;;;;;;8.67;5.57;;;;;;;11.98;95.63;93889.72;5030250;28;20450;-77
2023/11/11 00:51:14;;;;;;;4.47;3.97;;;;;;;12.01;95.73;93899.09;5030440;28;20503;-77
2023/11/11 00:53:41;;;;;;;3.93;3.63;;;;;;;12.15;95.28;93908.97;5030381;28;20455;-76
2023/11/11 00:56:08;;;;;;;5.90;4.57;;;;;;;12.20;95.02;93901.41;5030136;28;20796;-77
2023/11/11 00:58:35;;;;;;;5.73;5.23;;;;;;;12.22;94.42;93894.19;5030162;28;20451;-77
2023/11/11 01:01:04;;;;;;;5.90;5.20;;;;;;;12.20;94.02;93875.13;5030237;28;20803;-77
2023/11/11 01:03:31;;;;;;;4.13;3.73;;;;;;;12.33;94.09;93895.66;5029933;28;20445;-77
2023/11/11 01:05:57;;;;;;;5.20;4.70;;;;;;;12.35;93.66;93891.84;5029900;28;20482;-77
2023/11/11 01:08:24;;;;;;;6.70;6.03;;;;;;;12.33;93.86;93893.84;5029875;28;20444;-77
2023/11/11 01:10:51;;;;;;;5.50;4.70;;;;;;;12.30;93.10;93901.25;5029181;28;20461;-77
2023/11/11 01:13:19;;;;;;;6.33;5.50;;;;;;;12.34;93.31;93915.69;5029887;28;20450;-76
2023/11/11 01:15:47;;;;;;;7.53;4.10;;;;;;;12.41;93.58;93920.13;5030190;28;20470;-76
2023/11/11 01:18:15;;;;;;;5.60;4.53;;;;;;;12.40;92.69;93900.06;5029771;28;20437;-76
2023/11/11 01:20:45;;;;;;;4.87;4.47;;;;;;;12.29;92.32;93874.13;5079588;28;20436;-76
2023/11/11 01:23:12;;;;;;;5.50;4.73;;;;;;;12.20;92.56;93866.41;5029678;28;20457;-76
2023/11/11 01:25:39;;;;;;;9.00;4.73;;;;;;;12.30;92.90;93881.03;5010986;28;20989;-76
2023/11/11 01:28:06;;;;;;;5.70;5.20;;;;;;;12.34;92.75;93886.75;5029625;28;20447;-76
2023/11/11 01:30:34;;;;;;;10.13;5.80;;;;;;;12.20;92.09;93879.56;5029626;28;20443;-76
2023/11/11 01:33:01;;;;;;;8.33;6.67;;;;;;;12.14;92.13;93870.50;4994780;28;20451;-76
2023/11/11 01:35:29;;;;;;;8.33;6.63;;;;;;;12.14;91.73;93864.41;5029448;28;20443;-76
2023/11/11 01:37:56;;;;;;;7.23;5.93;;;;;;;12.20;92.34;93888.25;5029825;28;20443;-76
2023/11/11 01:40:23;;;;;;;9.77;6.40;;;;;;;12.05;91.50;93908.28;5029347;28;20446;-76
2023/11/11 01:42:49;;;;;;;8.10;6.77;;;;;;;11.98;91.72;93902.88;4994710;28;20504;-76
2023/11/11 01:45:18;;;;;;;7.73;5.97;;;;;;;11.94;92.03;93895.47;5029447;28;20489;-76
2023/11/11 01:47:45;;;;;;;7.20;6.50;;;;;;;11.81;93.45;93880.16;5029295;28;20455;-76
2023/11/11 01:50:13;;;;;;;8.53;6.07;;;;;;;11.86;93.74;93887.59;5029416;28;20442;-76
2023/11/11 01:52:42;;;;;;;7.37;6.60;;;;;;;11.86;92.54;93879.69;5029316;28;20540;-76
2023/11/11 01:55:09;;;;;;;10.50;7.43;;;;;;;11.67;92.99;93872.91;5029300;28;20510;-76
2023/11/11 01:57:36;;;;;;;7.40;6.67;;;;;;;11.60;94.41;93893.75;5029355;28;20451;-76
2023/11/11 02:00:12;;;;;;;7.40;6.60;;;;;;;11.57;93.37;93870.44;5029210;28;20541;-76
2023/11/11 02:02:39;;;;;;;8.87;6.20;;;;;;;11.63;94.33;93874.22;4996836;28;20486;-76
2023/11/11 02:05:06;;;;;;;7.77;6.90;;;;;;;11.60;94.60;93861.41;5029083;28;20494;-76
2023/11/11 02:07:34;;;;;;;8.33;6.97;;;;;;;11.58;94.09;93855.47;5029116;28;20470;-76
2023/11/11 02:10:02;;;;;;;11.73;6.17;;;;;;;11.60;94.33;93872.72;5029018;28;20921;-76
2023/11/11 02:12:30;;;;;;;8.90;6.87;;;;;;;11.63;93.85;93863.69;5029171;28;20439;-76
2023/11/11 02:14:57;;;;;;;7.70;6.90;;;;;;;11.57;94.13;93862.53;5029238;28;20447;-76
2023/11/11 02:17:25;;;;;;;7.20;6.53;;;;;;;11.61;93.11;93863.03;5029223;28;20457;-76
2023/11/11 02:19:52;;;;;;;9.20;5.90;;;;;;;11.60;94.98;93851.72;5028928;28;20922;-76
2023/11/11 02:22:18;;;;;;;7.27;6.57;;;;;;;11.49;94.31;93838.84;5030291;28;20997;-76
2023/11/11 02:24:52;;;;;;;9.57;5.90;;;;;;;11.51;93.57;93842.16;5032363;28;20905;-76
2023/11/11 02:27:19;;;;;;;8.03;6.77;;;;;;;11.54;93.94;93852.31;5032317;28;20440;-76
2023/11/11 02:29:46;;;;;;;10.80;6.90;;;;;;;11.56;93.51;93845.09;5032112;28;20442;-76
2023/11/11 02:32:13;;;;;;;7.33;6.63;;;;;;;11.51;93.54;93831.63;5031882;28;20458;-76
2023/11/11 02:34:40;;;;;;;8.93;7.87;;;;;;;11.47;93.50;93836.41;5031947;28;20798;-76
2023/11/11 02:37:07;;;;;;;10.30;7.03;;;;;;;11.29;93.90;93832.28;5031819;28;20446;-76
2023/11/11 02:39:35;;;;;;;9.40;8.00;;;;;;;11.27;94.05;93834.19;5031941;28;20446;-76
2023/11/11 02:42:03;;;;;;;10.90;7.47;;;;;;;11.32;94.39;93831.94;5032162;28;20464;-76
2023/11/11 02:44:30;;;;;;;8.20;6.90;;;;;;;11.20;94.41;93834.03;5032207;28;20455;-76
2023/11/11 02:46:57;;;;;;;7.53;6.70;;;;;;;11.21;94.37;93824.34;5031704;28;20803;-76
2023/11/11 02:49:24;;;;;;;10.67;8.20;;;;;;;11.23;94.03;93823.19;5031929;28;20490;-76
2023/11/11 02:51:51;;;;;;;10.83;7.30;;;;;;;11.32;94.50;93842.44;5031691;28;20905;-76
2023/11/11 02:54:17;;;;;;;8.63;6.50;;;;;;;11.25;94.71;93831.75;4997019;28;20936;-76
2023/11/11 02:56:44;;;;;;;8.40;6.10;;;;;;;11.32;93.80;93832.75;5031889;28;20977;-76
2023/11/11 02:59:12;;;;;;;10.50;6.53;;;;;;;11.32;93.45;93835.41;5032133;28;20449;-76
2023/11/11 03:01:41;;;;;;;8.27;6.00;;;;;;;11.38;93.66;93847.06;5031703;28;20452;-76
2023/11/11 03:04:08;;;;;;;8.90;6.70;;;;;;;11.27;93.68;93837.66;5031966;28;20509;-76
2023/11/11 03:06:40;;;;;;;7.70;5.67;;;;;;;11.33;93.95;93831.78;5031962;28;20482;-76
2023/11/11 03:09:07;;;;;;;6.87;6.17;;;;;;;11.44;93.59;93831.47;5031889;28;20534;-76
2023/11/11 03:11:34;;;;;;;7.83;5.53;;;;;;;11.54;93.98;93838.38;5032331;28;20810;-76
2023/11/11 03:14:01;;;;;;;6.60;6.00;;;;;;;11.55;95.03;93832.13;5038969;28;20447;-76
2023/11/11 03:16:36;;;;;;;6.43;5.17;;;;;;;11.61;95.31;93848.09;5039241;28;20503;-76
2023/11/11 03:19:03;;;;;;;8.90;6.30;;;;;;;11.48;94.39;93834.59;5031555;28;20459;-76
2023/11/11 03:21:30;;;;;;;11.60;6.83;;;;;;;11.54;94.31;93841.81;5031370;28;20957;-76
2023/11/11 03:23:56;;;;;;;8.63;6.70;;;;;;;11.57;94.33;93828.38;5031789;28;20446;-76
2023/11/11 03:26:24;;;;;;;6.83;6.10;;;;;;;11.54;95.00;93830.50;5031531;28;20825;-76
2023/11/11 03:28:51;;;;;;;8.23;6.83;;;;;;;11.53;94.80;93834.91;5031328;28;20779;-76
2023/11/11 03:31:18;;;;;;;7.90;6.70;;;;;;;11.59;94.25;93836.94;5031511;28;20443;-76
2023/11/11 03:33:46;;;;;;;9.93;6.43;;;;;;;11.67;93.82;93849.25;5030827;28;20535;-76
2023/11/11 03:36:13;;;;;;;10.13;5.80;;;;;;;11.70;93.76;93847.13;5031377;28;20479;-75
2023/11/11 03:38:40;;;;;;;5.80;5.03;;;;;;;11.69;94.54;93840.22;5031450;28;20483;-76
2023/11/11 03:41:08;;;;;;;6.00;4.97;;;;;;;11.75;94.78;93823.78;5031330;28;20463;-76
2023/11/11 03:43:35;;;;;;;5.97;5.20;;;;;;;11.68;94.59;93811.47;5031382;28;20458;-76
2023/11/11 03:46:04;;;;;;;4.57;4.17;;;;;;;11.58;94.82;93792.44;5031299;28;20489;-76
2023/11/11 03:48:30;;;;;;;4.53;4.10;;;;;;;11.59;95.82;93792.25;5031354;28;20789;-76
2023/11/11 03:50:59;;;;;;;5.13;4.57;;;;;;;11.76;96.22;93790.44;4996109;28;20447;-76
2023/11/11 03:53:25;;;;;;;6.30;4.73;;;;;;;11.82;94.57;93776.66;4996572;28;20462;-76
2023/11/11 03:55:52;;;;;;;7.23;5.93;;;;;;;11.85;94.30;93781.59;5011965;28;20478;-76
2023/11/11 03:58:19;;;;;;;7.03;5.10;;;;;;;11.86;94.72;93782.44;5030645;28;20993;-76
2023/11/11 04:00:46;;;;;;;6.00;5.40;;;;;;;11.78;93.82;93791.13;5012377;28;20476;-76
2023/11/11 04:03:13;;;;;;;7.60;6.80;;;;;;;11.65;94.40;93788.16;5012407;28;20542;-76
2023/11/11 04:05:40;;;;;;;6.47;5.80;;;;;;;11.55;94.61;93769.91;5030633;28;20487;-76
2023/11/11 04:08:08;;;;;;;5.47;4.80;;;;;;;11.43;94.63;93766.78;5030862;28;20454;-76
2023/11/11 04:10:35;;;;;;;5.90;5.30;;;;;;;11.48;94.20;93800.44;5030727;28;20450;-76
2023/11/11 04:13:02;;;;;;;10.07;6.50;;;;;;;11.44;94.62;93788.63;5030689;28;20444;-76
2023/11/11 04:15:29;;;;;;;8.13;5.47;;;;;;;11.38;95.32;93763.00;5030714;28;20511;-76
2023/11/11 04:17:55;;;;;;;11.47;6.07;;;;;;;11.32;95.83;93740.84;4996355;28;20466;-77
2023/11/11 04:20:22;;;;;;;6.37;5.27;;;;;;;11.37;94.84;93735.09;5030539;28;20451;-76
2023/11/11 04:22:49;;;;;;;6.20;5.60;;;;;;;11.48;94.48;93746.09;5030690;28;20445;-76
2023/11/11 04:25:17;;;;;;;7.97;7.10;;;;;;;11.45;94.61;93756.09;5030669;28;20487;-76
2023/11/11 04:27:44;;;;;;;9.33;7.33;;;;;;;11.41;95.46;93758.25;5030490;28;20776;-76
2023/11/11 04:30:11;;;;;;;7.20;5.53;;;;;;;11.36;94.71;93739.53;5030634;28;20451;-76
2023/11/11 04:32:38;;;;;;;4.40;3.97;;;;;;;11.55;94.56;93748.88;5029938;28;20446;-76
2023/11/11 04:35:07;;;;;;;7.43;5.30;;;;;;;11.78;93.12;93749.91;5033380;28;20463;-77
2023/11/11 04:37:34;;;;;;;7.50;6.80;;;;;;;11.91;93.08;93740.72;5031808;28;20508;-76
2023/11/11 04:40:00;;;;;;;9.20;5.13;;;;;;;11.94;93.55;93743.00;5010508;28;20439;-77
2023/11/11 04:42:28;;;;;;;6.87;6.17;;;;;;;11.77;93.60;93764.00;5010787;28;20445;-76
2023/11/11 04:44:56;;;;;;;9.00;6.67;;;;;;;11.76;92.84;93758.91;5009929;28;20855;-76
2023/11/11 04:47:23;;;;;;;6.53;5.67;;;;;;;11.80;93.06;93757.63;5010273;28;20816;-76
2023/11/11 04:49:50;;;;;;;6.10;4.80;;;;;;;11.81;92.76;93758.44;5010431;28;20455;-75
2023/11/11 04:52:17;;;;;;;8.73;5.80;;;;;;;11.70;95.20;93764.81;5010348;28;20973;-76
2023/11/11 04:54:44;;;;;;;6.30;5.33;;;;;;;11.69;96.02;93773.69;5010367;28;20507;-76
2023/11/11 04:57:11;;;;;;;7.00;5.20;;;;;;;11.65;97.34;93760.06;5010451;28;20452;-76
2023/11/11 04:59:39;;;;;;;11.10;5.97;;;;;;;11.68;98.61;93761.53;5010047;28;20450;-76
2023/11/11 05:02:06;;;;;;;9.10;5.27;;;;;;;11.74;100.00;93768.75;5076544;28;20451;-76
2023/11/11 05:04:33;;;;;;;6.13;4.43;;;;;;;11.77;99.80;93769.25;5010312;28;20440;-77
2023/11/11 05:07:00;;;;;;;8.87;5.90;;;;;;;11.79;100.00;93769.94;5010424;28;20490;-77
2023/11/11 05:09:27;;;;;;;6.20;5.17;;;;;;;11.86;100.00;93751.72;5010050;28;20449;-76
2023/11/11 05:11:54;;;;;;;7.80;6.53;;;;;;;11.94;100.00;93743.00;5010224;28;20936;-77
2023/11/11 05:14:22;;;;;;;6.23;5.63;;;;;;;11.95;100.00;93734.13;5010110;28;20441;-76
2023/11/11 05:16:52;;;;;;;35.60;20.53;;;;;;;11.84;100.00;93708.97;5019737;28;20482;-77
2023/11/11 05:19:20;;;;;;;11.03;7.90;;;;;;;11.50;100.00;93693.38;5011806;28;20454;-77
2023/11/11 05:21:47;;;;;;;5.90;5.20;;;;;;;11.51;100.00;93678.44;5030057;28;20933;-77
2023/11/11 05:24:14;;;;;;;10.50;6.80;;;;;;;11.67;100.00;93702.09;5029850;28;20447;-77
2023/11/11 05:26:42;;;;;;;6.63;6.13;;;;;;;11.53;100.00;93732.47;5029850;28;20490;-78
2023/11/11 05:29:09;;;;;;;6.30;5.67;;;;;;;11.51;100.00;93713.41;5030163;28;20451;-77
2023/11/11 05:31:36;;;;;;;6.13;5.63;;;;;;;11.46;100.00;93699.97;5029374;28;20482;-76
2023/11/11 05:34:05;;;;;;;7.27;5.20;;;;;;;11.50;100.00;93719.66;5029543;28;20448;-76
2023/11/11 05:36:33;;;;;;;8.40;5.90;;;;;;;11.53;100.00;93724.59;5029498;28;20438;-76
2023/11/11 05:39:00;;;;;;;7.33;6.03;;;;;;;11.56;100.00;93724.25;5029182;28;20487;-76
2023/11/11 05:41:29;;;;;;;12.03;7.37;;;;;;;11.64;100.00;93739.22;5097447;28;20439;-76
2023/11/11 05:43:56;;;;;;;8.07;6.77;;;;;;;11.58;100.00;93738.06;5029578;28;20440;-76
2023/11/11 05:46:24;;;;;;;10.07;6.57;;;;;;;11.47;100.00;93741.81;5029536;28;20495;-76
2023/11/11 05:48:51;;;;;;;8.67;6.43;;;;;;;11.58;100.00;93737.25;5011135;28;20530;-77
2023/11/11 05:51:19;;;;;;;6.70;6.03;;;;;;;11.63;100.00;93730.50;5030456;28;20461;-78
2023/11/11 05:53:46;;;;;;;7.43;6.50;;;;;;;11.70;100.00;93741.19;5030177;28;20450;-79
2023/11/11 05:56:14;;;;;;;9.03;6.90;;;;;;;11.74;100.00;93751.19;5031582;28;20474;-79
2023/11/11 05:58:41;;;;;;;12.07;5.87;;;;;;;11.60;100.00;93736.09;5015513;28;20442;-79
2023/11/11 06:01:08;;;;;;;9.20;6.70;;;;;;;11.56;100.00;93728.69;5033671;28;20428;-79
2023/11/11 06:03:35;;;;;;;6.77;5.83;;;;;;;11.56;100.00;93724.25;5014579;28;20913;-79
2023/11/11 06:06:02;;;;;;;8.10;6.30;;;;;;;11.69;100.00;93721.16;5033217;28;20485;-77
2023/11/11 06:08:30;;;;;;;9.33;6.13;;;;;;;11.81;100.00;93730.34;5032885;28;20439;-77
2023/11/11 06:10:57;;;;;;;10.50;7.37;;;;;;;11.80;100.00;93752.34;5032667;28;20446;-77
2023/11/11 06:13:24;;;;;;;14.13;8.23;;;;;;;11.72;100.00;93745.28;5030321;28;20435;-76
2023/11/11 06:15:51;;;;;;;12.00;8.37;;;;;;;11.75;100.00;93744.94;5032615;28;20447;-77
2023/11/11 06:18:18;;;;;;;9.33;6.43;;;;;;;11.66;100.00;93717.03;5033065;28;20909;-78
2023/11/11 06:20:45;;;;;;;5.73;5.17;;;;;;;11.52;100.00;93707.19;5014292;28;20446;-78
2023/11/11 06:23:12;;;;;;;3.03;2.43;;;;;;;11.74;94.14;93709.13;5033026;28;20496;-75
2023/11/11 06:25:40;;;;;;;6.50;5.20;;;;;;;11.90;96.75;93710.16;5032063;28;20447;-75
2023/11/11 06:28:07;;;;;;;8.07;6.00;;;;;;;11.99;97.60;93722.28;5032097;28;20446;-75
2023/11/11 06:30:33;;;;;;;6.93;5.60;;;;;;;11.93;98.76;93746.63;4997021;28;20493;-78
2023/11/11 06:33:00;;;;;;;9.73;7.33;;;;;;;11.95;98.56;93707.84;5032079;28;20468;-75
2023/11/11 06:35:28;;;;;;;8.70;6.60;;;;;;;11.97;99.11;93738.22;5031699;28;20913;-75
2023/11/11 06:37:55;;;;;;;8.13;7.00;;;;;;;11.76;98.48;93712.41;5031844;28;20484;-75
2023/11/11 06:40:22;;;;;;;5.47;4.40;;;;;;;11.58;97.77;93698.66;5013151;28;20431;-75
2023/11/11 06:42:54;;;;;;;7.50;6.67;;;;;;;11.78;98.79;93730.69;5099556;28;20431;-75
2023/11/11 06:45:21;;;;;;;7.07;6.33;;;;;;;11.83;99.21;93732.81;5031585;28;20446;-75
2023/11/11 06:47:49;;;;;;;6.90;5.70;;;;;;;11.90;98.67;93732.00;5013055;28;20582;-75
2023/11/11 06:50:17;;;;;;;7.20;6.20;;;;;;;11.83;97.56;93720.47;5031531;28;20451;-75
2023/11/11 06:52:44;;;;;;;9.90;5.57;;;;;;;11.99;98.49;93751.19;5031284;28;20451;-75
2023/11/11 06:55:11;;;;;;;7.80;6.10;;;;;;;11.98;96.61;93728.53;5031578;28;20603;-76
2023/11/11 06:57:39;;;;;;;6.60;5.93;;;;;;;11.82;96.64;93716.22;5031188;28;20791;-75
2023/11/11 07:00:15;;;;;;;10.50;6.37;;;;;;;12.09;100.00;93679.03;5030970;28;20448;-77
2023/11/11 07:02:43;;;;;;;5.67;3.93;;;;;;;13.26;100.00;93666.78;5031294;28;20459;-79
2023/11/11 07:05:10;;;;;;;4.10;2.70;;;;;;;13.53;92.87;93707.56;5126774;27;20445;-76
2023/11/11 07:07:40;;;;;;;3.13;2.70;;;;;;;13.60;86.12;93705.91;5133978;27;20487;-75
2023/11/11 07:10:09;;;;;;;3.27;2.67;;;;;;;13.76;85.77;93694.38;5135466;27;20451;-75
2023/11/11 07:12:36;;;;;;;3.00;2.70;;;;;;;13.84;82.60;93697.75;5135558;27;20764;-76
2023/11/11 07:15:03;;;;;;;2.83;2.30;;;;;;;14.00;84.38;93685.41;5065531;27;20438;-75
2023/11/11 07:17:31;;;;;;;2.53;2.30;;;;;;;14.08;82.57;93672.97;5076999;27;20901;-76
2023/11/11 07:19:58;;;;;;;2.77;2.57;;;;;;;14.13;82.76;93681.13;5079413;27;20434;-75
2023/11/11 07:22:25;;;;;;;2.67;2.47;;;;;;;14.38;83.91;93678.22;5090402;27;20438;-75
2023/11/11 07:24:52;;;;;;;2.40;2.20;;;;;;;14.22;79.99;93682.72;5087438;27;20925;-76
2023/11/11 07:27:19;;;;;;;3.70;2.50;;;;;;;14.30;80.17;93694.16;5047958;27;20466;-76
2023/11/11 07:29:46;;;;;;;5.57;4.90;;;;;;;14.70;89.52;93691.06;5073745;27;20495;-76
2023/11/11 07:32:13;;;;;;;8.60;4.70;;;;;;;15.14;93.04;93677.78;5030900;28;20444;-76
2023/11/11 07:34:43;;;;;;;7.40;5.77;;;;;;;15.63;96.47;93665.66;5030883;28;20459;-77
2023/11/11 07:37:11;;;;;;;15.43;6.90;;;;;;;16.00;95.35;93654.75;5030994;28;20455;-78
2023/11/11 07:39:39;;;;;;;5.20;4.40;;;;;;;16.11;93.02;93635.69;5030863;28;20454;-76
2023/11/11 07:42:07;;;;;;;5.40;4.80;;;;;;;16.49;97.75;93637.94;5030726;28;20521;-76
2023/11/11 07:44:34;;;;;;;6.43;5.43;;;;;;;16.39;79.17;93656.81;5028719;28;20983;-76
2023/11/11 07:47:04;;;;;;;12.50;7.00;;;;;;;15.77;78.82;93635.66;5040531;28;20487;-79
2023/11/11 07:49:33;;;;;;;6.07;5.13;;;;;;;15.40;81.49;93648.13;5037714;28;20470;-80
2023/11/11 07:52:02;;;;;;;5.80;4.97;;;;;;;15.10;80.78;93662.47;5057548;28;20440;-80
2023/11/11 07:54:29;;;;;;;10.57;5.80;;;;;;;14.71;83.30;93653.09;5016838;28;20820;-80
2023/11/11 07:56:57;;;;;;;11.17;5.80;;;;;;;14.37;84.51;93644.94;5018851;27;20455;-80
2023/11/11 07:59:24;;;;;;;9.50;5.83;;;;;;;14.22;83.31;93643.13;5030273;28;20440;-76
2023/11/11 08:01:50;;;;;;;5.90;5.30;;;;;;;14.08;84.07;93640.47;5030369;28;20461;-76
2023/11/11 08:04:17;;;;;;;7.97;6.40;;;;;;;13.82;84.56;93633.81;5030438;28;20450;-76
2023/11/11 08:06:44;;;;;;;11.17;9.07;;;;;;;13.55;85.44;93645.78;5030004;28;20490;-76
2023/11/11 08:09:13;;;;;;;9.33;7.57;;;;;;;13.24;86.93;93637.16;5030249;28;20452;-76
2023/11/11 08:11:41;;;;;;;18.53;5.97;;;;;;;13.08;86.75;93630.19;5030019;28;20478;-78
2023/11/11 08:14:07;;;;;;;7.93;7.07;;;;;;;13.19;87.77;93650.84;5030397;28;20449;-76
2023/11/11 08:16:36;;;;;;;13.40;8.40;;;;;;;13.15;88.45;93623.22;5011115;28;20437;-76
2023/11/11 08:19:04;;;;;;;10.97;6.90;;;;;;;13.02;87.73;93623.00;5030211;28;20506;-76
2023/11/11 08:21:32;;;;;;;12.20;8.60;;;;;;;12.93;88.18;93624.84;5030236;28;20547;-77
2023/11/11 08:23:59;;;;;;;14.70;9.70;;;;;;;13.07;88.50;93625.91;5026244;28;20461;-77
2023/11/11 08:26:27;;;;;;;10.90;8.70;;;;;;;13.10;88.80;93627.38;5029664;28;20575;-76
2023/11/11 08:28:54;;;;;;;12.77;9.60;;;;;;;13.17;89.08;93623.88;5029550;28;20840;-77
2023/11/11 08:31:27;;;;;;;32.13;16.30;;;;;;;13.20;89.11;93612.16;5029501;28;20438;-77
2023/11/11 08:33:55;;;;;;;32.63;15.00;;;;;;;13.29;89.02;93608.47;4996440;28;20546;-77
2023/11/11 08:36:23;;;;;;;17.30;12.57;;;;;;;13.37;88.52;93605.78;5029820;28;20468;-77
2023/11/11 08:38:50;;;;;;;15.03;9.87;;;;;;;13.39;88.22;93610.88;5029781;28;20452;-77
2023/11/11 08:41:18;;;;;;;13.77;9.23;;;;;;;13.44;88.89;93604.06;5077196;27;20933;-79
2023/11/11 08:43:46;;;;;;;12.07;7.23;;;;;;;13.38;87.18;93607.41;5098233;27;20473;-77
2023/11/11 08:46:13;;;;;;;11.13;7.20;;;;;;;13.39;87.13;93624.03;5081412;28;20462;-79
2023/11/11 08:48:41;;;;;;;12.23;6.60;;;;;;;13.44;87.15;93616.41;5010374;28;20458;-77
2023/11/11 08:51:08;;;;;;;6.77;6.00;;;;;;;13.48;87.03;93612.41;5023083;28;20521;-76
2023/11/11 08:53:42;;;;;;;6.60;5.40;;;;;;;13.51;87.16;93604.97;5079973;28;20461;-77
2023/11/11 08:56:09;;;;;;;6.67;5.90;;;;;;;13.62;87.29;93614.28;5021973;28;20473;-77
2023/11/11 08:58:41;;;;;;;10.37;7.70;;;;;;;13.68;87.22;93610.09;5016338;28;20444;-76
2023/11/11 09:01:10;;;;;;;16.70;10.57;;;;;;;13.69;87.29;93603.81;5030787;28;20444;-76
2023/11/11 09:03:38;;;;;;;13.10;10.33;;;;;;;13.65;87.50;93611.28;5029515;28;20538;-76
2023/11/11 09:06:09;;;;;;;12.50;9.07;;;;;;;13.69;87.47;93633.63;5030051;28;20446;-76
2023/11/11 09:08:38;;;;;;;6.60;6.00;;;;;;;13.61;86.10;93600.28;5029973;28;20498;-76
2023/11/11 09:11:06;;;;;;;8.97;6.67;;;;;;;13.62;88.34;93599.28;5029746;28;20446;-75
2023/11/11 09:13:33;;;;;;;25.97;13.13;;;;;;;13.59;86.86;93598.81;5032227;28;20444;-76
2023/11/11 09:16:00;;;;;;;6.20;5.60;;;;;;;13.52;85.08;93595.25;5039693;28;20437;-76
2023/11/11 09:18:29;;;;;;;7.03;4.90;;;;;;;13.67;85.38;93579.47;5029569;28;20475;-76
2023/11/11 09:20:55;;;;;;;7.77;5.40;;;;;;;13.74;85.62;93575.09;5044635;28;20439;-77
2023/11/11 09:23:23;;;;;;;17.73;9.53;;;;;;;13.92;85.99;93562.38;5041242;28;20987;-76
2023/11/11 09:25:50;;;;;;;9.07;4.40;;;;;;;14.05;81.38;93546.72;5029570;28;20951;-76
2023/11/11 09:28:17;;;;;;;3.53;2.67;;;;;;;14.18;79.41;93546.06;5029210;28;20498;-76
2023/11/11 09:30:44;;;;;;;6.47;4.30;;;;;;;14.34;78.88;93553.75;5029678;28;20452;-76
2023/11/11 09:33:11;;;;;;;3.70;2.97;;;;;;;14.46;76.93;93554.97;5032256;28;20445;-80
2023/11/11 09:35:39;;;;;;;2.70;1.97;;;;;;;14.63;76.37;93560.81;5032220;28;20438;-76
2023/11/11 09:38:06;;;;;;;1.90;1.80;;;;;;;14.76;75.82;93539.00;5099234;28;20470;-76
2023/11/11 09:40:33;;;;;;;2.03;1.67;;;;;;;14.90;74.93;93555.78;4997318;28;20505;-76
2023/11/11 09:43:00;;;;;;;3.13;2.70;;;;;;;14.97;74.35;93538.16;5031927;28;20956;-77
2023/11/11 09:45:28;;;;;;;4.63;4.20;;;;;;;15.08;74.10;93532.41;5031935;28;20438;-77
2023/11/11 09:48:00;;;;;;;3.93;2.07;;;;;;;15.14;74.66;93526.34;5031851;28;20484;-77
2023/11/11 09:50:28;;;;;;;2.37;2.17;;;;;;;15.21;72.66;93529.84;5032224;28;20464;-78
2023/11/11 09:52:58;;;;;;;5.27;4.10;;;;;;;15.29;71.54;93524.41;5031880;28;20445;-77
2023/11/11 09:55:25;;;;;;;1.50;1.40;;;;;;;15.31;71.03;93517.09;5031514;28;20473;-77
2023/11/11 09:57:52;;;;;;;2.37;1.60;;;;;;;15.35;70.21;93507.81;5031541;28;20448;-77
2023/11/11 10:00:19;;;;;;;9.40;2.20;;;;;;;15.35;70.99;93507.81;5031900;28;20453;-76
2023/11/11 10:02:46;;;;;;;2.60;2.33;;;;;;;15.41;70.61;93514.97;5031429;28;20450;-75
2023/11/11 10:05:13;;;;;;;6.73;2.47;;;;;;;15.39;72.64;93502.94;5031429;28;20927;-76
2023/11/11 10:07:40;;;;;;;13.83;4.80;;;;;;;15.38;71.40;93491.56;5031798;28;20519;-75
2023/11/11 10:10:12;;;;;;;5.90;3.90;;;;;;;15.44;75.53;93496.06;5031305;28;20435;-75
2023/11/11 10:12:39;;;;;;;2.90;2.70;;;;;;;15.49;74.99;93491.00;5012940;28;20512;-75
2023/11/11 10:15:08;;;;;;;9.87;5.50;;;;;;;15.37;76.88;93516.34;5031914;28;20440;-74
2023/11/11 10:17:42;;;;;;;20.53;10.87;;;;;;;15.30;80.32;93523.41;5031286;28;20446;-73
2023/11/11 10:20:13;;;;;;;7.23;6.40;;;;;;;15.00;79.75;93514.00;5031927;28;20444;-75
2023/11/11 10:22:44;;;;;;;5.00;4.40;;;;;;;14.98;81.36;93497.53;5031200;28;20538;-75
2023/11/11 10:25:14;;;;;;;9.40;5.50;;;;;;;14.76;80.79;93499.41;4996168;28;20800;-76
2023/11/11 10:27:50;;;;;;;27.43;14.33;;;;;;;14.81;83.92;93497.81;5031242;28;20490;-74
2023/11/11 10:30:19;;;;;;;10.73;6.10;;;;;;;14.87;87.29;93491.78;5078212;28;20443;-75
2023/11/11 10:32:48;;;;;;;9.10;5.53;;;;;;;14.92;87.99;93504.41;5031506;28;20532;-75
2023/11/11 10:35:19;;;;;;;5.40;4.60;;;;;;;14.85;84.62;93503.53;5031256;28;20454;-77
2023/11/11 10:37:51;;;;;;;10.70;6.47;;;;;;;15.89;94.31;93487.78;5031326;28;20461;-78
2023/11/11 10:40:19;;;;;;;5.60;4.60;;;;;;;16.94;80.19;93489.94;5012678;28;20938;-76
2023/11/11 10:42:48;;;;;;;6.37;5.30;;;;;;;16.21;75.05;93497.72;5029948;28;20939;-79
2023/11/11 10:45:17;;;;;;;3.40;2.90;;;;;;;15.92;76.06;93492.72;5031431;28;20965;-79
2023/11/11 10:47:45;;;;;;;2.43;2.23;;;;;;;15.78;77.78;93486.53;5031331;28;20482;-79
2023/11/11 10:50:12;;;;;;;10.80;4.50;;;;;;;15.57;80.21;93491.84;5031558;28;20443;-80
2023/11/11 10:52:40;;;;;;;18.33;10.03;;;;;;;15.32;82.47;93476.44;5012328;28;20453;-78
2023/11/11 10:55:11;;;;;;;2.43;2.20;;;;;;;15.23;79.76;93474.97;5031505;28;20481;-75
2023/11/11 10:57:42;;;;;;;3.90;3.47;;;;;;;15.22;79.17;93481.28;5031197;28;20936;-78
2023/11/11 11:00:17;;;;;;;2.30;1.83;;;;;;;15.24;77.78;93489.81;5030993;28;20444;-78
2023/11/11 11:02:46;;;;;;;4.90;3.40;;;;;;;15.21;79.38;93498.13;5012656;28;20824;-77
2023/11/11 11:05:23;;;;;;;10.23;3.80;;;;;;;15.21;83.32;93477.00;5031313;28;20482;-81
2023/11/11 11:07:55;;;;;;;7.30;4.57;;;;;;;15.19;82.97;93473.72;5012288;28;20853;-77
2023/11/11 11:10:32;;;;;;;2.20;2.00;;;;;;;15.27;81.79;93481.50;5031278;28;20447;-77
2023/11/11 11:13:09;;;;;;;1.40;1.30;;;;;;;15.39;81.57;93472.03;4995967;28;20520;-77
2023/11/11 11:15:39;;;;;;;5.57;3.60;;;;;;;15.71;80.96;93475.91;5030807;28;20446;-77
2023/11/11 11:18:10;;;;;;;1.53;1.40;;;;;;;15.89;74.46;93469.25;5080934;28;20452;-75
2023/11/11 11:20:37;;;;;;;1.93;1.83;;;;;;;16.05;74.80;93461.00;5030768;28;20447;-74
2023/11/11 11:23:07;;;;;;;2.03;1.70;;;;;;;15.98;76.50;93445.09;5030643;28;20469;-77
2023/11/11 11:25:40;;;;;;;3.63;2.40;;;;;;;16.03;75.96;93441.84;5030636;28;20484;-74
2023/11/11 11:28:22;;;;;;;1.50;1.40;;;;;;;16.17;73.99;93445.34;5030464;28;20490;-73
2023/11/11 11:30:53;;;;;;;2.20;2.00;;;;;;;16.24;73.12;93438.25;5012483;28;20448;-73
2023/11/11 11:33:21;;;;;;;2.80;1.50;;;;;;;16.16;74.37;93441.88;5030520;28;20914;-73